Lithia Springs, GA

3:16 PM EDT on September 21, 2014 (GMT -0400)
The Hartsfield Atlanta International | Change Station
CLOSE
Current Station
Airport
Location: Atlanta,
Elevation: 1024 ft
Nearby Weather Stations

Elev 1024 ft 33.63 °N, 84.44 °W | Updated 24 minutes ago

Clear
Clear
85 °F
Feels Like 84 °F
N
12
Wind Variable Wind from NW

Today
High -- | Low -- °F
--% Chance of Precip.
Yesterday
High -- | Low -- °F
Precip. -- in
7:25 AM 7:36 PM
Waning Crescent, 6% visible
Pressure 29.96 in
Visibility 10.0 miles
Clouds Scattered Clouds 5500 ft
Scattered Clouds 6500 ft
Scattered Clouds 25000 ft
Heat Index 84 °F
Dew Point 57 °F
Humidity 38%
Rainfall 0.00 in
Snow Depth Not available.
UV 6 out of 12
Pollen 8.30 out of 12
Ozone Good
PM2.5 Good
Flu Activity Not available.
METAR KATL 211852Z 31010KT 10SM SCT055 SCT065 SCT250 29/14 A2998 RMK AO2 SLP144 T02940139

More Conditions Fewer Conditions

Pressure 29.96 in
Visibility 10.0 miles
Clouds Scattered Clouds 5500 ft
Scattered Clouds 6500 ft
Scattered Clouds 25000 ft
Heat Index 84 °F
Dew Point 57 °F
Humidity 38%
Rainfall 0.00 in
Snow Depth Not available.
UV 6 out of 12
Pollen 8.30 out of 12
Ozone Good
PM2.5 Good
Flu Activity Not available.
METAR KATL 211852Z 31010KT 10SM SCT055 SCT065 SCT250 29/14 A2998 RMK AO2 SLP144 T02940139

More Conditions Fewer Conditions

10-Day Weather Forecast

Almanac

Astronomy

Sep. 21, 2014 Rise Set
Actual Time 7:25 AM EDT 7:36 PM EDT
Civil Twilight 7:01 AM EDT 8:01 PM EDT
Nautical Twilight 6:31 AM EDT 8:30 PM EDT
Astronomical Twilight 6:02 AM EDT 8:59 PM EDT
Moon 5:04 AM EDT 6:08 PM EDT
Length of Visible Light 13h 00m
Length of Day
12h 10m
Tomorrow will be 2m 5s shorter.
Waning Crescent, 6% of the Moon is Illuminated
Today
Waning Crescent
Sep 24
New
Oct 1
First Quarter
Oct 8
Full
Oct 15
Last Quarter

Today's Extremes

State Highs State Lows

Community

WunderPhotos

Upload Photos

1,755,226 photos uploaded!

Nearby

Air Quality

  Air Quality AQ Index Pollutant
Yesterday Good
PM10
Yesterday Good
OZONE
Current Good
PM2.5
Current Good
OZONE
Sunday Moderate
PM2.5
Sunday Good
OZONE
Monday Good
OZONE
Monday Good
PM2.5

Snow Depth

Station Depth Elevation
No new snow has been reported.

Earthquake Activity

City Distance Mag. Time & Date
Sweetwater, Tennessee 129 miles 2.5 3:54 PM EDT
2014-09-20
Minimum magnitude displayed is 2.5.

Coastal Water Temperatures

Place Temperature
No Stations Reporting

Nearby Weather Stations